TTJ weather

Tottori Airport
Tottori, Tottori Prefecture, Japan

Public forecast

Using degrees Celsius for public forecast. Weather courtesy of forecast.io.

METAR (pilot weather report)

Report is more than 2 hours old.

Retrieved 2019/05/21 12:00 UTC (3 hours ago):

RJOR 211200Z 18004KT CAVOK 16/13 Q1007

TAF (pilot weather forecast)

Closest forecast is Miho Yonago Airport, 45.6 nm (84.4 km) W. Retrieved 2019/05/21 12:00 UTC (3 hours ago):

TAF RJOH 211109Z 2112/2218 22008KT 9999 FEW050